Latest Weather Observations for Forrest

IDW60801

Issued at 5:32 am WST Wednesday 5 August 2015 (issued every 30 minutes, with the page automatically refreshed every 10 minutes)

About weather observations | Map of weather stations | Latest weather observations for WA | Other Formats
Station Details ID: 011052 Name: FORREST Lat: -30.85 Lon: 128.11 Height: 159.0 m
Data from the previous 72 hours. | See also: Recent months at Forrest
Date/Time
WST
Temp
°C
App
Temp
°C
Dew
Point
Rel
Hum
%
Delta-T
°C
Wind Press
QNH
hPa
Press
MSL
hPa
Rain
since 9 am
mm
Dir
 
Spd
km/h
Gust
km/h
Spd
kts
Gust
kts
05/05:30am 2.7 -0.3 1.7 93 0.4 SW 7 9 4 5 1030.5 - 0.0
05/05:00am 3.9 0.7 2.9 93 0.4 SSW 9 9 5 5 1030.3 - 0.0
05/04:30am 4.0 1.1 2.8 92 0.5 SSW 7 9 4 5 1030.3 - 0.0
05/04:00am 3.9 1.1 2.9 93 0.4 SSW 7 9 4 5 1030.3 - 0.0
05/03:30am 3.9 1.0 2.7 92 0.5 SW 7 7 4 4 1030.1 - 0.0
05/03:00am 4.4 1.2 2.9 90 0.6 SW 9 9 5 5 1030.1 1030.2 0.0
05/02:30am 5.0 1.8 3.3 89 0.7 SW 9 11 5 6 1030.2 - 0.0
05/02:00am 5.5 2.4 3.8 89 0.7 SSW 9 13 5 7 1030.3 - 0.0
05/01:30am 5.8 2.8 4.0 88 0.8 SSW 9 11 5 6 1030.8 - 0.0
05/01:00am 5.6 2.2 3.8 88 0.8 SSW 11 11 6 6 1030.8 - 0.0
05/12:30am 5.4 1.9 3.3 86 0.9 SSW 11 107 6 58 1030.9 - 0.0
05/12:23am 5.1 -4.7 3.1 87 0.8 SW 44 107 24 58 1031.0 - 0.0
05/12:20am 5.1 -16.5 3.1 87 0.8 SW 106 107 57 58 1031.0 - 0.0
05/12:04am 4.9 -16.8 2.6 85 0.9 SSE 106 107 57 58 1031.0 - 0.0
05/12:00am 5.2 2.5 2.7 84 1.0 SSE 6 7 3 4 1031.0 1031.1 0.0
 
Date/Time
WST
Temp
°C
App
Temp
°C
Dew
Point
Rel
Hum
%
Delta-T
°C
Wind Press
QNH
hPa
Press
MSL
hPa
Rain
since 9 am
mm
Dir
 
Spd
km/h
Gust
km/h
Spd
kts
Gust
kts
04/11:30pm 5.9 3.3 3.1 82 1.2 SSE 6 9 3 5 1031.1 - 0.0
04/11:00pm 7.0 4.5 3.6 79 1.5 SSE 6 7 3 4 1031.4 - 0.0
04/10:30pm 7.6 5.0 4.0 78 1.6 SSE 7 9 4 5 1031.4 - 0.0
04/10:00pm 7.3 4.7 3.2 75 1.7 SE 6 7 3 4 1031.6 - 0.0
04/09:30pm 8.9 6.4 3.7 70 2.3 S 6 107 3 58 1031.7 - 0.0
04/09:22pm 9.9 5.0 4.1 67 2.6 SSE 19 107 10 58 1031.8 - 0.0
04/09:21pm 10.0 -6.9 4.2 67 2.6 SSE 82 107 44 58 1031.8 - 0.0
04/09:20pm 10.0 -11.4 4.2 67 2.6 SSE 106 107 57 58 1031.8 - 0.0
04/09:00pm 9.6 -11.8 4.4 70 2.3 S 106 106 57 57 1031.7 1031.7 0.0
04/08:58pm 9.4 -11.6 4.4 71 2.2 S 104 106 56 57 1031.8 - 0.0
04/08:57pm 9.3 -5.6 4.3 71 2.2 S 72 106 39 57 1031.8 - 0.0
04/08:30pm 10.4 7.4 4.3 66 2.7 SSE 9 9 5 5 1031.9 - 0.0
04/08:00pm 10.7 7.4 4.4 65 2.8 S 11 15 6 8 1031.9 - 0.0
04/07:30pm 11.1 8.1 4.3 63 3.1 S 9 11 5 6 1031.9 - 0.0
04/07:00pm 10.9 8.0 4.8 66 2.8 SSE 9 13 5 7 1031.7 - 0.0
04/06:30pm 11.0 7.6 4.0 62 3.1 S 11 13 6 7 1031.6 - 0.0
04/06:00pm 11.4 8.0 3.9 60 3.3 S 11 13 6 7 1031.5 1031.5 0.0
04/05:30pm 12.4 8.6 4.1 57 3.8 S 13 17 7 9 1031.1 - 0.0
04/05:00pm 13.1 8.6 4.3 55 4.0 SSE 17 22 9 12 1030.9 - 0.0
04/04:30pm 13.7 8.8 4.0 52 4.5 S 19 24 10 13 1030.7 - 0.0
04/04:00pm 14.1 9.3 4.4 52 4.5 SSE 19 24 10 13 1030.6 - 0.0
04/03:30pm 14.5 10.4 4.2 50 4.8 SSE 15 24 8 13 1030.5 - 0.0
04/03:00pm 14.9 11.4 3.7 47 5.1 SW 11 13 6 7 1030.7 1030.8 0.0
04/02:30pm 14.3 10.4 3.5 48 4.9 SSW 13 20 7 11 1030.9 - 0.0
04/02:00pm 15.8 12.8 3.9 45 5.5 WSW 9 17 5 9 1031.0 - 0.0
04/01:38pm 14.8 7.8 3.9 48 5.0 W 30 106 16 57 1031.1 - 0.0
04/01:30pm 14.1 10.4 4.4 52 4.5 S 13 17 7 9 1031.2 - 0.0
04/01:00pm 15.0 12.4 4.1 48 5.1 SSE 7 13 4 7 1031.5 - 0.0
04/12:35pm 14.2 10.5 4.5 52 4.5 S 13 107 7 58 1031.8 - 0.0
04/12:32pm 14.9 4.2 4.6 50 4.8 SSE 50 107 27 58 1031.8 - 0.0
04/12:31pm 14.6 0.3 4.6 51 4.7 SE 69 107 37 58 1031.8 - 0.0
04/12:30pm 14.5 10.4 4.5 51 4.7 SSE 15 106 8 57 1031.9 - 0.0
04/12:00pm 13.9 10.2 4.2 52 4.4 S 13 22 7 12 1032.2 1032.2 0.0
04/11:30am 13.3 9.4 3.4 51 4.5 SSW 13 20 7 11 1032.8 - 0.0
04/11:04am 14.0 6.7 4.6 53 4.4 WNW 32 106 17 57 1033.1 - 0.0
04/11:00am 13.8 10.6 4.9 55 4.2 SSW 11 17 6 9 1033.2 - 0.0
04/10:30am 13.7 10.1 5.1 56 4.0 SE 13 19 7 10 1033.5 - 0.0
04/10:15am 13.6 9.5 4.5 54 4.2 E 15 106 8 57 1033.7 - 0.0
04/10:12am 13.3 -4.4 4.7 56 4.0 S 87 106 47 57 1033.7 - 0.0
04/10:11am 13.0 4.7 4.2 55 4.0 S 37 106 20 57 1033.8 - 0.0
04/10:00am 12.8 9.9 4.8 58 3.7 SW 9 20 5 11 1033.9 - 0.0
04/09:30am 11.6 5.5 6.5 71 2.4 SSW 28 106 15 57 1034.2 - 0.0
04/09:24am 11.3 -9.5 7.0 75 2.1 SSW 106 106 57 57 1034.2 - 0.0
04/09:19am 10.9 -6.6 7.6 80 1.6 S 89 104 48 56 1034.2 - 0.0
04/09:18am 10.9 2.7 8.0 82 1.4 S 41 104 22 56 1034.2 - 0.0
04/09:00am 9.7 8.1 8.9 95 0.4 SW 7 11 4 6 1034.2 1034.3 0.0
04/08:30am 8.3 6.8 8.3 100 0.0 W 6 15 3 8 1034.3 - 0.0
04/08:00am 6.7 4.6 6.7 100 0.0 W 7 9 4 5 1034.2 - 0.0
04/07:30am 5.6 2.9 5.6 100 0.0 WSW 9 11 5 6 1033.9 - 0.0
04/07:00am 4.2 0.8 4.2 100 0.0 W 11 15 6 8 1033.7 - 0.0
04/06:30am 2.7 -1.7 2.7 100 0.0 WSW 15 17 8 9 1033.4 - 0.0
04/06:00am 2.5 -1.6 2.5 100 0.0 WSW 13 15 7 8 1033.2 1033.3 0.0
04/05:30am 2.1 -1.3 2.0 99 0.0 W 9 11 5 6 1033.0 - 0.0
04/05:00am 2.5 -1.2 2.4 99 0.0 W 11 13 6 7 1032.8 - 0.0
04/04:30am 2.7 -0.6 2.6 99 0.0 W 9 13 5 7 1032.6 - 0.0
04/04:11am 2.9 -0.3 2.8 99 0.0 W 9 106 5 57 1032.4 - 0.0
04/04:08am 2.7 -12.9 2.6 99 0.0 W 74 106 40 57 1032.5 - 0.0
04/04:00am 2.9 -1.5 2.8 99 0.0 W 15 17 8 9 1032.4 - 0.0
04/03:30am 2.8 -0.5 2.7 99 0.0 W 9 11 5 6 1032.3 - 0.0
04/03:00am 3.6 -0.3 3.5 99 0.0 WSW 13 15 7 8 1032.1 1032.1 0.0
04/02:30am 3.5 -0.1 3.2 98 0.1 W 11 15 6 8 1032.2 - 0.0
04/02:00am 4.1 1.4 3.8 98 0.1 SW 7 9 4 5 1032.2 - 0.0
04/01:30am 4.7 2.1 4.4 98 0.1 SSW 7 9 4 5 1032.3 - 0.0
04/01:00am 5.7 3.4 5.6 99 0.0 S 7 7 4 4 1032.4 - 0.0
04/12:30am 6.2 3.9 5.9 98 0.1 S 7 9 4 5 1032.8 - 0.0
04/12:00am 6.2 3.5 5.8 97 0.2 S 9 11 5 6 1033.0 1033.1 0.0
 
Date/Time
WST
Temp
°C
App
Temp
°C
Dew
Point
Rel
Hum
%
Delta-T
°C
Wind Press
QNH
hPa
Press
MSL
hPa
Rain
since 9 am
mm
Dir
 
Spd
km/h
Gust
km/h
Spd
kts
Gust
kts
03/11:30pm 6.9 4.0 6.5 97 0.2 S 11 15 6 8 1033.1 - 0.0
03/11:00pm 6.7 3.7 6.1 96 0.3 S 11 13 6 7 1033.4 - 0.0
03/10:30pm 7.2 3.9 6.5 95 0.3 S 13 15 7 8 1033.4 - 0.0
03/10:00pm 7.9 4.8 7.1 95 0.4 S 13 15 7 8 1033.5 - 0.0
03/09:30pm 8.0 4.4 6.9 93 0.5 SSE 15 19 8 10 1033.5 - 0.0
03/09:00pm 8.5 5.7 7.1 91 0.7 SSE 11 13 6 7 1033.6 1033.7 0.0
03/08:30pm 9.1 6.4 7.5 90 0.8 SSE 11 13 6 7 1033.5 - 0.0
03/08:00pm 9.7 6.7 7.6 87 1.0 SE 13 15 7 8 1033.1 - 0.0
03/07:30pm 10.5 7.2 8.1 85 1.2 SE 15 19 8 10 1032.7 - 0.0
03/07:00pm 11.3 8.1 8.3 82 1.5 SE 15 19 8 10 1032.5 - 0.0
03/06:30pm 12.4 8.5 8.5 77 2.0 SSE 19 22 10 12 1032.3 - 0.0
03/06:00pm 13.3 10.0 8.2 71 2.5 SSE 15 20 8 11 1032.1 1032.1 0.0
03/05:30pm 13.7 10.8 8.3 70 2.7 SSE 13 17 7 9 1031.8 - 0.0
03/05:00pm 14.1 10.1 8.3 68 2.9 S 19 24 10 13 1031.5 - 0.0
03/04:30pm 15.4 11.6 5.6 52 4.7 S 15 20 8 11 1031.4 - 0.0
03/04:00pm 15.4 10.9 6.1 54 4.5 S 19 24 10 13 1031.1 - 0.0
03/03:30pm 15.7 11.7 4.7 48 5.2 S 15 20 8 11 1031.2 - 0.0
03/03:00pm 16.7 12.8 5.3 47 5.5 SSW 15 28 8 15 1031.1 1031.2 0.0
03/02:30pm 16.3 11.5 4.4 45 5.6 SSW 19 28 10 15 1031.1 - 0.0
03/02:00pm 16.4 12.5 5.4 48 5.3 S 15 22 8 12 1031.5 - 0.0
03/01:30pm 16.0 12.3 6.2 52 4.8 SSW 15 20 8 11 1031.6 - 0.0
03/01:00pm 15.0 11.4 6.8 58 4.0 S 15 22 8 12 1031.9 - 0.0
03/12:30pm 15.3 11.0 7.1 58 4.1 S 19 26 10 14 1032.3 - 0.0
03/12:00pm 15.4 12.4 5.9 53 4.6 S 11 19 6 10 1032.8 1032.9 0.0
03/11:30am 15.5 12.5 6.2 54 4.5 S 11 24 6 13 1033.0 - 0.0
03/11:00am 15.5 12.3 6.8 56 4.3 SSE 13 22 7 12 1033.2 - 0.0
03/10:30am 14.5 11.1 7.8 64 3.4 S 15 24 8 13 1033.6 - 0.0
03/10:00am 13.7 10.5 8.3 70 2.7 SSW 15 24 8 13 1033.9 - 0.0
03/09:30am 13.1 10.2 9.5 79 1.8 SSW 15 19 8 10 1034.1 - 0.0
03/09:00am 11.8 9.3 9.7 87 1.1 SW 13 17 7 9 1034.1 1034.2 0.2
03/08:30am 10.5 7.3 9.9 96 0.3 SW 17 20 9 11 1034.1 - 0.2
03/08:00am 8.5 4.9 8.4 99 0.0 SW 17 20 9 11 1033.9 - 0.2
03/07:30am 7.4 4.3 7.4 100 0.0 WSW 13 17 7 9 1033.6 - 0.2
03/07:00am 5.4 1.9 5.4 100 0.0 WSW 13 17 7 9 1033.2 - 0.2
03/06:30am 4.2 0.1 4.1 99 0.0 WSW 15 17 8 9 1032.9 - 0.0
03/06:00am 4.1 0.3 4.0 99 0.0 W 13 13 7 7 1032.7 1032.8 0.0
03/05:30am 4.7 1.0 4.6 99 0.0 WSW 13 15 7 8 1032.4 - 0.0
03/05:00am 5.0 1.0 4.9 99 0.0 WSW 15 17 8 9 1032.2 - 0.0
03/04:30am 5.6 1.7 5.5 99 0.0 SW 15 17 8 9 1031.9 - 0.0
03/04:00am 5.0 1.4 4.9 99 0.0 WSW 13 15 7 8 1031.8 - 0.0
03/03:30am 4.8 1.1 4.5 98 0.1 WSW 13 13 7 7 1031.8 - 0.0
03/03:00am 5.0 1.0 4.7 98 0.1 WSW 15 17 8 9 1031.9 1031.9 0.0
03/02:30am 4.9 1.2 4.6 98 0.1 WSW 13 15 7 8 1032.1 - 0.0
03/02:00am 5.2 1.6 4.9 98 0.1 WSW 13 15 7 8 1032.3 - 0.0
03/01:30am 5.3 1.3 5.0 98 0.1 WSW 15 17 8 9 1032.2 - 0.0
03/01:00am 5.2 1.6 4.8 97 0.2 WSW 13 15 7 8 1032.3 - 0.0
03/12:30am 5.3 0.9 4.9 97 0.2 W 17 17 9 9 1032.3 - 0.0
03/12:00am 5.2 1.6 4.8 97 0.2 W 13 15 7 8 1032.5 1032.6 0.0
 
Date/Time
WST
Temp
°C
App
Temp
°C
Dew
Point
Rel
Hum
%
Delta-T
°C
Wind Press
QNH
hPa
Press
MSL
hPa
Rain
since 9 am
mm
Dir
 
Spd
km/h
Gust
km/h
Spd
kts
Gust
kts
02/11:30pm 5.6 2.0 5.0 96 0.3 W 13 15 7 8 1032.5 - 0.0
02/11:00pm 5.7 2.1 5.0 95 0.3 WSW 13 15 7 8 1032.5 - 0.0
02/10:30pm 5.9 2.7 5.0 94 0.4 SW 11 13 6 7 1032.3 - 0.0
02/10:00pm 6.4 3.6 5.0 91 0.6 SW 9 11 5 6 1032.3 - 0.0
02/09:30pm 7.7 4.8 6.3 91 0.6 SSW 11 13 6 7 1032.3 - 0.0
02/09:00pm 7.8 4.5 6.3 90 0.7 SSW 13 15 7 8 1032.3 1032.3 0.0
02/08:30pm 8.1 4.8 6.4 89 0.8 SSW 13 13 7 7 1032.2 - 0.0
02/08:00pm 8.7 5.8 6.7 87 0.9 SSW 11 13 6 7 1032.1 - 0.0
02/07:30pm 9.7 6.5 7.0 83 1.3 SW 13 15 7 8 1031.9 - 0.0
02/07:00pm 10.6 7.5 7.3 80 1.6 SW 13 15 7 8 1031.7 - 0.0
02/06:30pm 11.7 9.5 8.0 78 1.8 SW 9 9 5 5 1031.4 - 0.0
02/06:00pm 12.2 10.0 7.9 75 2.1 S 9 11 5 6 1030.8 1030.9 0.0
02/05:30pm 12.7 10.2 8.0 73 2.3 S 11 15 6 8 1030.6 - 0.0
02/05:00pm 12.9 9.8 7.4 69 2.7 SSW 13 17 7 9 1030.3 - 0.0
02/04:30pm 13.3 9.3 6.6 64 3.2 SSW 17 22 9 12 1030.1 - 0.0
02/04:00pm 14.0 9.9 6.1 59 3.8 SSW 17 22 9 12 1029.9 - 0.0
02/03:30pm 13.9 9.3 6.3 60 3.7 SSW 20 28 11 15 1029.7 - 0.0
02/03:00pm 13.7 9.1 5.8 59 3.7 SSW 19 26 10 14 1029.5 1029.6 0.0
02/02:30pm 13.9 9.3 5.5 57 4.0 SSW 19 26 10 14 1029.3 - 0.0
02/02:00pm 13.5 8.9 5.7 59 3.7 SSW 19 24 10 13 1029.3 - 0.0
02/01:30pm 13.3 9.9 5.7 60 3.6 S 13 20 7 11 1029.3 - 0.0
02/01:00pm 13.2 9.0 5.9 61 3.5 S 17 26 9 14 1029.4 - 0.0
02/12:30pm 13.0 8.3 5.9 62 3.4 SSW 20 28 11 15 1029.6 - 0.0
02/12:00pm 13.0 8.7 5.4 60 3.5 S 17 24 9 13 1030.0 1030.1 0.0
02/11:30am 12.8 8.2 5.7 62 3.4 S 19 28 10 15 1030.2 - 0.0
02/11:00am 12.9 9.5 6.0 63 3.3 S 13 20 7 11 1030.5 - 0.0
02/10:30am 12.1 7.6 4.3 59 3.6 SSW 17 24 9 13 1030.6 - 0.0
02/10:00am 12.0 7.1 5.0 62 3.2 S 20 26 11 14 1030.7 - 0.0
02/09:30am 11.8 6.8 4.5 61 3.3 S 20 26 11 14 1030.8 - 0.0
02/09:00am 11.6 8.2 6.1 69 2.6 S 13 17 7 9 1030.5 1030.6 2.0
02/08:30am 10.4 7.7 7.3 81 1.5 SSW 11 15 6 8 1030.2 - 2.0
02/08:00am 9.5 6.8 7.4 87 1.0 SSW 11 15 6 8 1029.9 - 2.0
02/07:30am 8.8 6.0 6.9 88 0.9 SW 11 13 6 7 1029.4 - 2.0
02/07:00am 7.9 5.4 6.7 92 0.6 SSW 9 11 5 6 1029.1 - 2.0
02/06:30am 7.1 4.6 6.4 95 0.3 SSW 9 13 5 7 1028.4 - 2.0
02/06:00am 6.4 3.4 5.8 96 0.3 SSW 11 13 6 7 1028.0 1028.1 2.0

Other Formats:

Comma delimited format used in spreadsheet applications
http://www.bom.gov.au/fwo/IDW60801/IDW60801.95646.axf

JavaScript Object Notation format (JSON) in row-major order
http://www.bom.gov.au/fwo/IDW60801/IDW60801.95646.json